createdAt,value
2018-12-13T00:00:25.813Z,99280.09
2018-12-13T00:01:55.701Z,99277.73
2018-12-13T00:03:25.570Z,99270.48
2018-12-13T00:04:55.442Z,99273.70
2018-12-13T00:06:25.319Z,99271.88
2018-12-13T00:07:55.220Z,99271.68
2018-12-13T00:09:25.096Z,99273.80
2018-12-13T00:10:55.178Z,99269.81
2018-12-13T00:12:25.075Z,99271.08
2018-12-13T00:13:55.151Z,99274.45
2018-12-13T00:15:29.638Z,99275.69
2018-12-13T00:16:59.597Z,99266.97
2018-12-13T00:18:29.471Z,99265.50
2018-12-13T00:19:59.344Z,99269.09
2018-12-13T00:21:29.326Z,99272.17
2018-12-13T00:22:59.214Z,99268.02
2018-12-13T00:24:29.102Z,99272.13
2018-12-13T00:25:58.992Z,99265.98
2018-12-13T00:27:28.894Z,99270.52
2018-12-13T00:28:58.951Z,99266.05
2018-12-13T00:30:36.271Z,99268.36
2018-12-13T00:32:06.296Z,99260.52
2018-12-13T00:33:36.327Z,99257.43
2018-12-13T00:35:06.518Z,99257.48
2018-12-13T00:36:39.686Z,99258.58
2018-12-13T00:38:08.452Z,99256.38
2018-12-13T00:39:38.459Z,99254.59
2018-12-13T00:41:08.336Z,99251.02
2018-12-13T00:42:38.399Z,99246.91
2018-12-13T00:44:08.376Z,99250.16
2018-12-13T00:45:38.374Z,99247.52
2018-12-13T00:47:08.258Z,99253.45
2018-12-13T00:48:38.311Z,99247.72
2018-12-13T00:50:08.447Z,99244.75
2018-12-13T00:51:38.606Z,99248.73
2018-12-13T00:53:08.517Z,99241.17
2018-12-13T00:54:38.606Z,99243.16
2018-12-13T00:56:08.476Z,99247.31
2018-12-13T00:57:38.374Z,99244.63
2018-12-13T01:05:17.075Z,99240.26
2018-12-13T01:06:47.071Z,99242.45
2018-12-13T01:08:17.110Z,99244.28
2018-12-13T01:09:46.982Z,99243.92
2018-12-13T01:11:16.862Z,99242.91
2018-12-13T01:12:46.755Z,99236.24
2018-12-13T01:14:16.616Z,99245.48
2018-12-13T01:15:46.655Z,99236.13
2018-12-13T01:17:16.856Z,99241.53
2018-12-13T01:18:46.740Z,99236.85
2018-12-13T01:20:16.617Z,99234.53
2018-12-13T01:21:46.500Z,99233.11
2018-12-13T01:23:16.399Z,99226.56
2018-12-13T01:24:46.283Z,99231.44
2018-12-13T01:26:16.183Z,99226.23
2018-12-13T01:27:46.076Z,99227.33
2018-12-13T01:29:16.084Z,99225.01
2018-12-13T01:30:46.108Z,99222.13
2018-12-13T01:32:16.022Z,99227.04
2018-12-13T01:33:45.895Z,99220.56
2018-12-13T01:35:15.795Z,99225.05
2018-12-13T01:36:45.691Z,99220.40
2018-12-13T01:38:15.604Z,99219.73
2018-12-13T01:39:45.487Z,99219.36
2018-12-13T01:41:15.363Z,99218.84
2018-12-13T01:42:45.263Z,99215.81
2018-12-13T01:44:15.130Z,99212.35
2018-12-13T01:45:44.995Z,99215.81
2018-12-13T01:47:14.887Z,99214.91
2018-12-13T01:48:44.770Z,99204.66
2018-12-13T01:50:14.652Z,99211.50
2018-12-13T01:51:44.620Z,99206.12
2018-12-13T01:53:14.530Z,99203.79
2018-12-13T01:54:44.398Z,99200.14
2018-12-13T01:56:14.266Z,99201.80
2018-12-13T01:57:44.151Z,99198.36
2018-12-13T01:59:14.027Z,99197.49
2018-12-13T02:00:44.039Z,99198.39
2018-12-13T02:02:13.906Z,99191.89
2018-12-13T02:03:43.906Z,99196.91
2018-12-13T02:05:13.779Z,99193.15
2018-12-13T02:06:43.646Z,99191.01
2018-12-13T02:08:13.693Z,99195.71
2018-12-13T02:09:43.698Z,99195.35
2018-12-13T02:11:13.564Z,99190.46
2018-12-13T02:12:43.450Z,99192.27
2018-12-13T02:14:13.322Z,99194.96
2018-12-13T02:15:43.375Z,99185.23
2018-12-13T02:17:13.238Z,99186.49
2018-12-13T02:18:43.278Z,99190.64
2018-12-13T02:20:13.315Z,99186.48
2018-12-13T02:21:43.328Z,99187.22
2018-12-13T02:23:13.199Z,99185.94
2018-12-13T02:24:43.079Z,99182.69
2018-12-13T02:26:12.954Z,99182.64
2018-12-13T02:27:42.864Z,99186.79
2018-12-13T02:29:13.077Z,99184.30
2018-12-13T02:30:43.151Z,99184.08
2018-12-13T02:32:13.067Z,99188.20
2018-12-13T02:33:42.944Z,99194.17
2018-12-13T02:35:12.811Z,99185.14
2018-12-13T02:36:42.771Z,99185.52
2018-12-13T02:38:12.894Z,99180.23
2018-12-13T02:39:43.077Z,99181.87
2018-12-13T02:41:13.074Z,99175.69
2018-12-13T02:42:42.980Z,99183.27
2018-12-13T02:44:12.883Z,99174.77
2018-12-13T02:45:42.791Z,99177.66
2018-12-13T02:47:12.707Z,99172.78
2018-12-13T02:48:42.630Z,99169.92
2018-12-13T02:50:12.762Z,99173.70
2018-12-13T02:51:42.650Z,99169.92
2018-12-13T02:53:12.563Z,99170.25
2018-12-13T02:54:42.615Z,99171.88
2018-12-13T02:56:12.538Z,99172.05
2018-12-13T02:57:42.484Z,99171.66
2018-12-13T02:59:12.687Z,99166.63
2018-12-13T03:00:42.764Z,99168.46
2018-12-13T03:02:12.805Z,99168.46
2018-12-13T03:03:42.697Z,99171.19
2018-12-13T03:05:13.314Z,99172.41
2018-12-13T03:06:43.350Z,99172.22
2018-12-13T03:10:09.646Z,99171.45
2018-12-13T03:11:39.601Z,99165.88
2018-12-13T03:13:09.768Z,99161.70
2018-12-13T03:14:39.775Z,99157.52
2018-12-13T03:16:09.688Z,99162.92
2018-12-13T03:17:39.602Z,99153.56
2018-12-13T03:19:09.644Z,99159.34
2018-12-13T03:20:39.758Z,99151.57
2018-12-13T03:22:09.668Z,99151.04
2018-12-13T03:23:39.759Z,99149.91
2018-12-13T03:25:09.667Z,99146.13
2018-12-13T03:26:39.563Z,99145.89
2018-12-13T03:28:09.503Z,99145.52
2018-12-13T03:29:39.595Z,99142.47
2018-12-13T03:31:09.489Z,99147.64
2018-12-13T03:32:39.505Z,99137.88
2018-12-13T03:34:09.419Z,99144.18
2018-12-13T03:35:39.480Z,99146.83
2018-12-13T03:37:09.373Z,99145.20
2018-12-13T03:38:39.283Z,99139.98
2018-12-13T03:40:09.353Z,99142.59
2018-12-13T03:41:39.381Z,99138.75
2018-12-13T03:43:09.251Z,99139.49
2018-12-13T03:44:39.247Z,99132.34
2018-12-13T03:46:09.282Z,99131.77
2018-12-13T03:47:39.174Z,99134.86
2018-12-13T03:49:09.071Z,99135.34
2018-12-13T03:50:38.961Z,99134.61
2018-12-13T03:52:08.963Z,99127.62
2018-12-13T03:53:38.882Z,99131.41
2018-12-13T03:55:08.827Z,99123.27
2018-12-13T03:56:38.822Z,99127.58
2018-12-13T03:58:08.755Z,99119.23
2018-12-13T03:59:38.761Z,99121.33
2018-12-13T04:01:08.790Z,99120.45
2018-12-13T04:02:38.663Z,99118.91
2018-12-13T04:04:08.545Z,99118.39
2018-12-13T04:05:38.534Z,99114.81
2018-12-13T04:07:08.618Z,99111.08
2018-12-13T04:08:38.516Z,99105.31
2018-12-13T04:10:08.424Z,99114.61
2018-12-13T04:11:38.318Z,99116.97
2018-12-13T04:13:08.202Z,99110.83
2018-12-13T04:14:38.094Z,99109.00
2018-12-13T04:16:08.251Z,99105.59
2018-12-13T04:17:38.135Z,99105.99
2018-12-13T04:19:08.175Z,99104.65
2018-12-13T04:20:38.091Z,99102.48
2018-12-13T04:22:07.979Z,99107.58
2018-12-13T04:23:39.820Z,99101.23
2018-12-13T04:25:09.723Z,99106.75
2018-12-13T04:26:39.591Z,99102.59
2018-12-13T04:28:09.491Z,99103.86
2018-12-13T04:29:39.403Z,99102.44
2018-12-13T04:31:09.306Z,99097.88
2018-12-13T04:32:39.238Z,99099.86
2018-12-13T04:34:09.238Z,99097.15
2018-12-13T04:35:39.130Z,99096.78
2018-12-13T04:37:09.035Z,99098.61
2018-12-13T04:38:38.948Z,99094.05
2018-12-13T04:40:09.057Z,99095.10
2018-12-13T04:41:38.947Z,99096.56
2018-12-13T04:43:08.849Z,99096.72
2018-12-13T04:44:38.779Z,99093.11
2018-12-13T04:46:08.686Z,99097.66
2018-12-13T04:47:38.643Z,99090.05
2018-12-13T04:49:08.780Z,99090.95
2018-12-13T04:50:38.689Z,99090.91
2018-12-13T04:52:08.786Z,99086.37
2018-12-13T04:53:38.794Z,99088.02
2018-12-13T04:55:08.730Z,99085.87
2018-12-13T04:56:38.624Z,99086.02
2018-12-13T04:58:08.519Z,99082.25
2018-12-13T04:59:38.426Z,99081.20
2018-12-13T05:01:08.372Z,99080.45
2018-12-13T05:02:38.322Z,99081.45
2018-12-13T05:04:08.264Z,99077.73
2018-12-13T05:05:38.187Z,99076.63
2018-12-13T05:07:08.251Z,99083.45
2018-12-13T05:08:38.187Z,99079.00
2018-12-13T05:10:08.377Z,99072.47
2018-12-13T05:11:38.392Z,99071.38
2018-12-13T05:13:08.447Z,99073.16
2018-12-13T05:14:38.479Z,99078.03
2018-12-13T05:16:08.703Z,99069.80
2018-12-13T05:17:38.599Z,99065.87
2018-12-13T05:19:08.531Z,99060.00
2018-12-13T05:20:38.443Z,99059.47
2018-12-13T05:22:08.358Z,99061.25
2018-12-13T05:23:38.276Z,99060.94
2018-12-13T05:25:08.287Z,99057.74
2018-12-13T05:26:38.198Z,99062.05
2018-12-13T05:28:08.330Z,99062.30
2018-12-13T05:29:38.254Z,99056.80
2018-12-13T05:31:09.523Z,99055.76
2018-12-13T05:32:39.622Z,99058.52
2018-12-13T05:34:09.780Z,99060.52
2018-12-13T05:35:39.834Z,99055.69
2018-12-13T05:37:10.023Z,99055.37
2018-12-13T05:38:40.114Z,99057.58
2018-12-13T05:40:10.035Z,99052.38
2018-12-13T05:41:40.113Z,99049.17
2018-12-13T05:43:10.015Z,99047.55
2018-12-13T05:44:39.971Z,99051.69
2018-12-13T05:46:09.875Z,99047.42
2018-12-13T05:47:39.899Z,99049.05
2018-12-13T05:49:09.814Z,99052.88
2018-12-13T05:50:39.722Z,99047.47
2018-12-13T05:52:09.650Z,99051.25
2018-12-13T05:53:39.555Z,99046.57
2018-12-13T05:55:09.661Z,99051.61
2018-12-13T05:56:39.663Z,99046.45
2018-12-13T05:58:09.566Z,99046.28
2018-12-13T05:59:39.578Z,99045.42
2018-12-13T06:01:09.894Z,99043.80
2018-12-13T06:02:39.806Z,99044.53
2018-12-13T06:04:09.724Z,99037.09
2018-12-13T06:05:39.647Z,99040.55
2018-12-13T06:07:09.691Z,99036.37
2018-12-13T06:08:39.615Z,99039.25
2018-12-13T06:10:09.535Z,99032.98
2018-12-13T06:11:41.125Z,99038.76
2018-12-13T06:13:11.142Z,99033.02
2018-12-13T06:14:41.104Z,99034.28
2018-12-13T06:16:11.064Z,99032.66
2018-12-13T06:17:41.027Z,99038.22
2018-12-13T06:19:11.003Z,99032.13
2018-12-13T06:20:41.008Z,99032.09
2018-12-13T06:22:11.071Z,99028.11
2018-12-13T06:23:41.066Z,99033.28
2018-12-13T06:25:11.033Z,99035.47
2018-12-13T06:26:41.266Z,99035.80
2018-12-13T06:28:11.175Z,99034.58
2018-12-13T06:29:43.073Z,99027.02
2018-12-13T06:31:13.126Z,99029.90
2018-12-13T06:32:43.139Z,99034.08
2018-12-13T06:34:13.093Z,99027.78
2018-12-13T06:35:43.034Z,99029.00
2018-12-13T06:37:13.002Z,99031.45
2018-12-13T06:38:42.924Z,99031.98
2018-12-13T06:40:15.594Z,99031.25
2018-12-13T06:41:44.720Z,99034.50
2018-12-13T06:43:14.626Z,99039.95
2018-12-13T06:44:44.558Z,99039.17
2018-12-13T06:46:14.610Z,99042.09
2018-12-13T06:47:44.626Z,99047.14
2018-12-13T06:49:14.853Z,99043.12
2018-12-13T06:50:44.766Z,99041.49
2018-12-13T06:52:14.743Z,99045.07
2018-12-13T06:55:41.058Z,99038.44
2018-12-13T06:57:10.985Z,99042.80
2018-12-13T06:58:40.946Z,99042.22
2018-12-13T07:00:10.956Z,99041.49
2018-12-13T07:01:40.984Z,99040.96
2018-12-13T07:03:10.873Z,99039.87
2018-12-13T07:04:40.772Z,99049.73
2018-12-13T07:06:10.802Z,99049.78
2018-12-13T07:07:40.692Z,99050.55
2018-12-13T07:09:10.733Z,99054.53
2018-12-13T07:10:40.871Z,99055.92
2018-12-13T07:12:11.069Z,99056.66
2018-12-13T07:13:41.135Z,99056.48
2018-12-13T07:15:11.227Z,99055.19
2018-12-13T07:16:41.313Z,99057.58
2018-12-13T07:18:11.229Z,99056.86
2018-12-13T07:19:41.449Z,99054.41
2018-12-13T07:21:11.398Z,99056.20
2018-12-13T07:22:41.399Z,99049.73
2018-12-13T07:24:11.567Z,99049.90
2018-12-13T07:25:41.527Z,99058.55
2018-12-13T07:27:11.802Z,99051.72
2018-12-13T07:28:41.897Z,99053.68
2018-12-13T07:30:12.385Z,99047.78
2018-12-13T07:31:42.876Z,99051.72
2018-12-13T07:33:13.858Z,99053.84
2018-12-13T07:34:43.932Z,99056.16
2018-12-13T07:36:13.948Z,99050.92
2018-12-13T07:37:44.183Z,99055.06
2018-12-13T07:39:14.203Z,99049.09
2018-12-13T07:40:44.248Z,99049.46
2018-12-13T07:42:14.368Z,99045.11
2018-12-13T07:43:44.467Z,99046.38
2018-12-13T07:45:14.890Z,99051.52
2018-12-13T07:46:46.381Z,99048.84
2018-12-13T07:48:16.444Z,99045.96
2018-12-13T07:49:46.521Z,99042.50
2018-12-13T07:51:16.656Z,99047.91
2018-12-13T07:52:46.780Z,99047.27
2018-12-13T07:54:16.815Z,99050.15
2018-12-13T07:55:46.850Z,99053.40
2018-12-13T07:57:16.991Z,99043.36
2018-12-13T07:58:47.021Z,99049.50
2018-12-13T08:00:17.024Z,99054.50
2018-12-13T08:01:47.059Z,99054.21
2018-12-13T08:09:06.661Z,99054.66
2018-12-13T08:10:36.850Z,99053.73
2018-12-13T08:12:07.046Z,99059.70
2018-12-13T08:13:37.079Z,99053.97
2018-12-13T08:15:07.477Z,99056.20
2018-12-13T08:16:37.509Z,99056.00
2018-12-13T08:18:07.582Z,99056.40
2018-12-13T08:19:37.716Z,99054.61
2018-12-13T08:21:07.777Z,99051.39
2018-12-13T08:22:37.868Z,99048.01
2018-12-13T08:24:08.171Z,99049.23
2018-12-13T08:25:38.238Z,99045.85
2018-12-13T08:27:08.400Z,99042.99
2018-12-13T08:28:38.436Z,99049.33
2018-12-13T08:30:08.761Z,99042.88
2018-12-13T08:31:38.843Z,99043.64
2018-12-13T08:33:08.863Z,99040.19
2018-12-13T08:34:39.036Z,99045.05
2018-12-13T08:36:10.299Z,99041.09
2018-12-13T08:37:40.425Z,99048.66
2018-12-13T08:39:10.526Z,99038.93
2018-12-13T08:40:40.527Z,99043.80
2018-12-13T08:42:10.650Z,99044.36
2018-12-13T08:43:40.718Z,99046.90
2018-12-13T08:45:11.059Z,99040.06
2018-12-13T08:46:41.141Z,99041.83
2018-12-13T08:48:11.254Z,99047.46
2018-12-13T08:49:41.357Z,99041.69
2018-12-13T08:51:11.426Z,99039.89
2018-12-13T08:52:41.713Z,99042.39
2018-12-13T08:54:11.848Z,99045.64
2018-12-13T08:55:41.952Z,99041.70
2018-12-13T08:57:12.088Z,99040.09
2018-12-13T08:58:43.040Z,99041.19
2018-12-13T09:00:13.094Z,99034.33
2018-12-13T09:01:57.696Z,99034.86
2018-12-13T09:03:27.773Z,99043.28
2018-12-13T09:04:57.896Z,99038.98
2018-12-13T09:06:27.932Z,99043.69
2018-12-13T09:07:58.099Z,99035.41
2018-12-13T09:09:28.167Z,99038.66
2018-12-13T09:10:58.280Z,99042.98
2018-12-13T09:12:28.342Z,99040.83
2018-12-13T09:13:58.503Z,99039.75
2018-12-13T09:15:28.581Z,99041.77
2018-12-13T09:16:58.721Z,99035.97
2018-12-13T09:18:28.719Z,99035.63
2018-12-13T09:20:07.604Z,99038.31
2018-12-13T09:21:37.670Z,99038.00
2018-12-13T09:23:07.903Z,99039.41
2018-12-13T09:24:38.058Z,99042.64
2018-12-13T09:26:08.144Z,99033.11
2018-12-13T09:27:38.264Z,99032.20
2018-12-13T09:29:08.396Z,99037.62
2018-12-13T09:30:38.559Z,99040.70
2018-12-13T09:32:08.671Z,99040.36
2018-12-13T09:33:38.825Z,99038.35
2018-12-13T09:35:09.004Z,99031.70
2018-12-13T09:36:39.048Z,99029.36
2018-12-13T09:38:09.164Z,99034.58
2018-12-13T09:39:39.337Z,99028.46
2018-12-13T09:41:10.415Z,99028.63
2018-12-13T09:42:40.502Z,99030.95
2018-12-13T09:44:16.241Z,99027.69
2018-12-13T09:45:46.394Z,99037.81
2018-12-13T09:47:16.660Z,99026.27
2018-12-13T09:48:46.896Z,99033.50
2018-12-13T09:50:17.008Z,99032.95
2018-12-13T09:51:47.051Z,99027.89
2018-12-13T09:53:17.195Z,99030.02
2018-12-13T09:54:47.357Z,99027.66
2018-12-13T09:56:17.482Z,99022.92
2018-12-13T09:57:48.160Z,99017.99
2018-12-13T09:59:18.239Z,99014.31
2018-12-13T10:00:50.193Z,99017.52
2018-12-13T10:02:20.230Z,99011.63
2018-12-13T10:03:50.481Z,99013.50
2018-12-13T10:05:20.734Z,99011.39
2018-12-13T10:06:50.821Z,99007.12
2018-12-13T10:08:20.931Z,99002.77
2018-12-13T10:09:51.130Z,99004.02
2018-12-13T10:11:21.387Z,99004.59
2018-12-13T10:12:51.704Z,98995.99
2018-12-13T10:14:21.884Z,99004.91
2018-12-13T10:15:52.115Z,98990.66
2018-12-13T10:17:22.219Z,99000.52
2018-12-13T10:18:52.457Z,98995.97
2018-12-13T10:21:59.413Z,98993.57
2018-12-13T10:23:29.561Z,98996.42
2018-12-13T10:24:59.768Z,98985.66
2018-12-13T10:26:29.900Z,98986.81
2018-12-13T10:28:00.228Z,98990.53
2018-12-13T10:29:30.425Z,98981.64
2018-12-13T10:31:00.793Z,98988.16
2018-12-13T10:32:30.899Z,98990.57
2018-12-13T10:34:01.057Z,98986.28
2018-12-13T10:35:31.106Z,98993.52
2018-12-13T10:37:02.160Z,98976.62
2018-12-13T10:38:32.423Z,98984.91
2018-12-13T10:40:03.701Z,98988.20
2018-12-13T10:41:37.192Z,98978.44
2018-12-13T10:43:07.171Z,98984.94
2018-12-13T10:44:39.516Z,98976.27
2018-12-13T10:46:09.567Z,98974.09
2018-12-13T10:47:39.742Z,98967.57
2018-12-13T10:49:09.795Z,98973.34
2018-12-13T10:50:39.753Z,98965.55
2018-12-13T10:52:09.700Z,98971.84
2018-12-13T10:53:39.657Z,98964.75
2018-12-13T10:55:09.860Z,98973.02
2018-12-13T10:56:39.796Z,98966.88
2018-12-13T10:58:10.071Z,98964.16
2018-12-13T10:59:40.515Z,98963.61
2018-12-13T11:01:16.553Z,98963.16
2018-12-13T11:03:00.150Z,98962.64
2018-12-13T11:04:30.096Z,98963.16
2018-12-13T11:06:00.428Z,98957.53
2018-12-13T11:07:30.503Z,98960.07
2018-12-13T11:09:00.453Z,98957.02
2018-12-13T11:10:30.622Z,98953.78
2018-12-13T11:12:00.653Z,98950.84
2018-12-13T11:13:30.647Z,98948.67
2018-12-13T11:15:00.599Z,98948.39
2018-12-13T11:16:30.517Z,98950.55
2018-12-13T11:18:00.549Z,98944.08
2018-12-13T11:19:30.571Z,98955.09
2018-12-13T11:21:00.924Z,98943.95
2018-12-13T11:22:31.045Z,98943.98
2018-12-13T11:24:01.103Z,98940.02
2018-12-13T11:25:31.033Z,98935.13
2018-12-13T11:27:12.692Z,98935.58
2018-12-13T11:29:56.095Z,98931.47
2018-12-13T11:31:26.210Z,98933.81
2018-12-13T11:32:56.228Z,98935.19
2018-12-13T11:34:26.199Z,98940.32
2018-12-13T11:35:56.232Z,98936.52
2018-12-13T11:37:26.180Z,98938.41
2018-12-13T11:38:56.315Z,98937.42
2018-12-13T11:40:26.453Z,98937.35
2018-12-13T11:41:56.389Z,98937.88
2018-12-13T11:43:26.643Z,98935.95
2018-12-13T11:44:56.715Z,98935.78
2018-12-13T11:46:26.790Z,98938.55
2018-12-13T11:48:00.227Z,98933.17
2018-12-13T11:49:30.250Z,98931.39
2018-12-13T11:51:00.207Z,98936.52
2018-12-13T11:52:30.183Z,98933.30
2018-12-13T11:54:01.721Z,98937.61
2018-12-13T11:55:36.155Z,98930.06
2018-12-13T11:57:06.396Z,98927.96
2018-12-13T11:58:36.467Z,98930.55
2018-12-13T12:00:12.982Z,98924.59
2018-12-13T12:01:42.992Z,98926.37
2018-12-13T12:07:05.052Z,98917.47
2018-12-13T12:08:35.015Z,98917.60
2018-12-13T12:10:05.244Z,98913.30
2018-12-13T12:11:35.670Z,98915.58
2018-12-13T12:13:05.810Z,98908.30
2018-12-13T12:14:35.907Z,98913.88
2018-12-13T12:16:05.980Z,98915.39
2018-12-13T12:17:36.139Z,98907.84
2018-12-13T12:19:06.303Z,98908.72
2018-12-13T12:20:36.278Z,98912.29
2018-12-13T12:22:06.264Z,98909.23
2018-12-13T12:23:36.232Z,98911.40
2018-12-13T12:25:06.691Z,98902.73
2018-12-13T12:26:36.810Z,98895.64
2018-12-13T12:28:06.761Z,98900.76
2018-12-13T12:29:36.738Z,98894.10
2018-12-13T12:31:06.811Z,98890.56
2018-12-13T12:32:36.842Z,98900.25
2018-12-13T12:34:07.867Z,98897.79
2018-12-13T12:35:37.882Z,98895.08
2018-12-13T12:37:07.808Z,98892.45
2018-12-13T12:38:37.860Z,98892.73
2018-12-13T12:40:08.600Z,98892.62
2018-12-13T12:41:38.492Z,98894.66
2018-12-13T12:43:08.435Z,98891.47
2018-12-13T12:44:40.874Z,98890.80
2018-12-13T12:46:23.827Z,98894.20
2018-12-13T12:47:53.771Z,98886.68
2018-12-13T12:49:23.736Z,98894.36
2018-12-13T12:50:53.764Z,98892.57
2018-12-13T12:52:23.680Z,98890.78
2018-12-13T12:53:53.789Z,98890.43
2018-12-13T12:55:23.754Z,98890.43
2018-12-13T12:56:53.940Z,98893.41
2018-12-13T12:58:23.884Z,98889.92
2018-12-13T12:59:53.915Z,98894.11
2018-12-13T13:01:23.890Z,98889.30
2018-12-13T13:02:54.042Z,98885.63
2018-12-13T13:04:23.996Z,98893.10
2018-12-13T13:05:53.967Z,98888.45
2018-12-13T13:07:23.944Z,98880.50
2018-12-13T13:08:53.897Z,98876.75
2018-12-13T13:10:23.832Z,98884.72
2018-12-13T13:11:53.791Z,98883.13
2018-12-13T13:13:23.831Z,98882.53
2018-12-13T13:14:53.829Z,98882.71
2018-12-13T13:16:23.819Z,98879.06
2018-12-13T13:17:53.906Z,98875.59
2018-12-13T13:19:23.895Z,98882.00
2018-12-13T13:20:53.845Z,98880.70
2018-12-13T13:22:23.966Z,98881.27
2018-12-13T13:23:54.041Z,98882.89
2018-12-13T13:25:24.271Z,98878.83
2018-12-13T13:26:54.220Z,98881.16
2018-12-13T13:28:24.158Z,98880.42
2018-12-13T13:29:54.096Z,98878.77
2018-12-13T13:31:24.068Z,98881.30
2018-12-13T13:32:54.681Z,98880.03
2018-12-13T13:36:21.257Z,98880.27
2018-12-13T13:37:51.277Z,98876.34
2018-12-13T13:39:31.858Z,98880.78
2018-12-13T13:41:02.028Z,98886.36
2018-12-13T13:42:32.032Z,98877.96
2018-12-13T13:44:02.160Z,98874.02
2018-12-13T13:45:32.328Z,98879.23
2018-12-13T13:47:02.486Z,98880.64
2018-12-13T13:48:32.592Z,98879.78
2018-12-13T13:50:03.088Z,98872.91
2018-12-13T13:51:33.474Z,98876.51
2018-12-13T13:53:03.607Z,98870.94
2018-12-13T13:54:33.729Z,98870.19
2018-12-13T13:56:03.737Z,98867.48
2018-12-13T13:57:33.844Z,98864.42
2018-12-13T13:59:03.927Z,98861.90
2018-12-13T14:00:34.318Z,98867.89
2018-12-13T14:02:04.902Z,98865.69
2018-12-13T14:03:34.944Z,98859.93
2018-12-13T14:05:05.340Z,98860.48
2018-12-13T14:06:35.752Z,98855.58
2018-12-13T14:08:06.088Z,98867.29
2018-12-13T14:09:38.108Z,98866.03
2018-12-13T14:11:08.523Z,98863.41
2018-12-13T14:12:38.751Z,98863.94
2018-12-13T14:14:09.107Z,98867.34
2018-12-13T14:15:39.182Z,98866.92
2018-12-13T14:17:09.367Z,98864.24
2018-12-13T14:18:39.370Z,98866.70
2018-12-13T14:20:09.684Z,98875.77
2018-12-13T14:21:39.901Z,98873.23
2018-12-13T14:23:10.604Z,98873.80
2018-12-13T14:24:40.677Z,98874.13
2018-12-13T14:26:12.924Z,98877.03
2018-12-13T14:27:45.117Z,98879.67
2018-12-13T14:29:17.301Z,98881.53
2018-12-13T14:30:48.647Z,98880.83
2018-12-13T14:32:18.818Z,98876.33
2018-12-13T14:33:48.881Z,98882.13
2018-12-13T14:35:19.057Z,98882.72
2018-12-13T14:36:56.636Z,98881.60
2018-12-13T14:38:46.806Z,98885.09
2018-12-13T14:40:16.950Z,98882.03
2018-12-13T14:43:42.661Z,98883.39
2018-12-13T14:45:13.259Z,98879.59
2018-12-13T14:46:43.751Z,98884.80
2018-12-13T14:48:13.861Z,98887.52
2018-12-13T14:49:43.946Z,98885.55
2018-12-13T14:51:14.222Z,98892.89
2018-12-13T14:52:44.530Z,98893.43
2018-12-13T14:56:11.020Z,98894.17
2018-12-13T14:57:41.199Z,98895.56
2018-12-13T14:59:14.983Z,98896.83
2018-12-13T15:00:45.029Z,98893.80
2018-12-13T15:02:15.120Z,98894.36
2018-12-13T15:03:45.346Z,98893.62
2018-12-13T15:05:15.965Z,98899.20
2018-12-13T15:06:45.928Z,98900.06
2018-12-13T15:08:15.887Z,98890.91
2018-12-13T15:09:50.822Z,98898.98
2018-12-13T15:11:18.083Z,98895.20
2018-12-13T15:12:48.104Z,98899.30
2018-12-13T15:14:18.140Z,98900.97
2018-12-13T15:15:49.181Z,98906.05
2018-12-13T15:17:19.189Z,98900.77
2018-12-13T15:18:49.110Z,98907.70
2018-12-13T15:20:19.270Z,98910.98
2018-12-13T15:21:49.464Z,98912.05
2018-12-13T15:23:19.534Z,98902.87
2018-12-13T15:24:49.495Z,98899.27
2018-12-13T15:26:19.526Z,98903.61
2018-12-13T15:27:49.565Z,98899.26
2018-12-13T15:29:19.678Z,98895.84
2018-12-13T15:30:56.574Z,98896.19
2018-12-13T15:32:26.536Z,98901.94
2018-12-13T15:33:56.530Z,98901.17
2018-12-13T15:35:26.494Z,98904.56
2018-12-13T15:36:56.479Z,98904.44
2018-12-13T15:38:27.458Z,98909.55
2018-12-13T15:39:57.561Z,98912.27
2018-12-13T15:41:27.546Z,98913.15
2018-12-13T15:42:57.498Z,98913.15
2018-12-13T15:44:27.526Z,98919.31
2018-12-13T15:45:57.519Z,98918.25
2018-12-13T15:47:27.643Z,98910.66
2018-12-13T15:48:57.631Z,98919.13
2018-12-13T15:50:27.698Z,98921.48
2018-12-13T15:51:57.745Z,98917.68
2018-12-13T15:53:27.694Z,98918.55
2018-12-13T15:54:57.614Z,98915.88
2018-12-13T15:56:27.575Z,98921.69
2018-12-13T15:57:57.478Z,98919.52
2018-12-13T15:59:27.414Z,98924.73
2018-12-13T16:00:57.354Z,98919.69
2018-12-13T16:02:27.392Z,98918.24
2018-12-13T16:03:57.307Z,98923.47
2018-12-13T16:05:27.252Z,98922.75
2018-12-13T16:06:57.178Z,98920.39
2018-12-13T16:08:27.355Z,98918.79
2018-12-13T16:10:03.620Z,98922.73
2018-12-13T16:11:29.204Z,98920.06
2018-12-13T16:13:16.422Z,98920.05
2018-12-13T16:14:46.351Z,98922.22
2018-12-13T16:16:16.451Z,98924.57
2018-12-13T16:17:52.935Z,98927.27
2018-12-13T16:19:22.866Z,98926.18
2018-12-13T16:20:52.806Z,98925.83
2018-12-13T16:22:22.742Z,98925.47
2018-12-13T16:23:52.706Z,98923.11
2018-12-13T16:25:22.659Z,98930.70
2018-12-13T16:26:52.738Z,98924.92
2018-12-13T16:28:22.871Z,98928.17
2018-12-13T16:29:53.271Z,98924.91
2018-12-13T16:31:23.371Z,98930.34
2018-12-13T16:32:53.255Z,98925.63
2018-12-13T16:34:23.311Z,98929.07
2018-12-13T16:35:53.395Z,98933.57
2018-12-13T16:37:23.311Z,98928.70
2018-12-13T16:38:53.324Z,98930.67
2018-12-13T16:40:23.267Z,98939.72
2018-12-13T16:41:53.360Z,98935.20
2018-12-13T16:43:23.421Z,98935.36
2018-12-13T16:44:55.373Z,98934.66
2018-12-13T16:46:25.423Z,98934.84
2018-12-13T16:47:55.353Z,98930.32
2018-12-13T16:49:25.286Z,98934.82
2018-12-13T16:50:55.374Z,98935.56
2018-12-13T16:52:32.829Z,98932.84
2018-12-13T16:54:03.306Z,98933.93
2018-12-13T16:55:34.283Z,98924.20
2018-12-13T16:57:04.288Z,98923.83
2018-12-13T16:58:34.290Z,98926.16
2018-12-13T17:00:04.974Z,98922.20
2018-12-13T17:01:34.988Z,98922.56
2018-12-13T17:03:16.685Z,98922.55
2018-12-13T17:04:46.634Z,98918.97
2018-12-13T17:06:16.718Z,98918.77
2018-12-13T17:07:46.644Z,98920.05
2018-12-13T17:09:16.612Z,98918.77
2018-12-13T17:10:47.705Z,98921.45
2018-12-13T17:12:17.673Z,98923.09
2018-12-13T17:13:47.713Z,98922.58
2018-12-13T17:15:17.779Z,98922.58
2018-12-13T17:16:47.751Z,98926.35
2018-12-13T17:18:17.696Z,98924.71
2018-12-13T17:19:47.632Z,98922.92
2018-12-13T17:21:17.638Z,98925.61
2018-12-13T17:22:47.578Z,98923.08
2018-12-13T17:24:17.523Z,98928.48
2018-12-13T17:25:49.424Z,98921.77
2018-12-13T17:27:19.395Z,98929.35
2018-12-13T17:28:49.341Z,98922.52
2018-12-13T17:30:19.276Z,98917.66
2018-12-13T17:31:49.383Z,98921.63
2018-12-13T17:33:19.341Z,98924.52
2018-12-13T17:34:49.278Z,98923.25
2018-12-13T17:36:19.276Z,98928.86
2018-12-13T17:37:49.202Z,98924.70
2018-12-13T17:39:19.140Z,98921.63
2018-12-13T17:40:49.213Z,98930.47
2018-12-13T17:42:19.285Z,98919.28
2018-12-13T17:43:49.343Z,98920.01
2018-12-13T17:45:19.398Z,98915.66
2018-12-13T17:46:49.793Z,98913.88
2018-12-13T17:48:19.795Z,98911.53
2018-12-13T17:49:49.878Z,98918.57
2018-12-13T17:51:20.268Z,98918.19
2018-12-13T17:52:50.309Z,98915.48
2018-12-13T17:54:20.212Z,98912.05
2018-12-13T17:55:50.123Z,98918.31
2018-12-13T17:57:20.064Z,98919.60
2018-12-13T17:58:50.114Z,98920.66
2018-12-13T18:00:20.169Z,98917.06
2018-12-13T18:01:50.198Z,98922.86
2018-12-13T18:03:20.104Z,98921.73
2018-12-13T18:04:50.024Z,98921.92
2018-12-13T18:06:20.055Z,98925.73
2018-12-13T18:07:50.163Z,98925.38
2018-12-13T18:09:20.139Z,98928.97